Time;durP1;ratioP1;P1;durP2;ratioP2;P2;SDS_P1;SDS_P2;PMS_P1;PMS_P2;Temp;Humidity;BMP_temperature;BMP_pressure;BME280_temperature;BME280_humidity;BME280_pressure;Samples;Min_cycle;Max_cycle;Signal;HPM_P1;HPM_P2
2021/12/25 00:00:44;;;;;;;16.53;14.93;;;;;;;;;;5056920;28;20396;-69
2021/12/25 00:03:11;;;;;;;18.20;16.30;;;;;;;;;;5056919;28;20403;-70
2021/12/25 00:05:37;;;;;;;24.03;16.43;;;;;;;;;;5056764;28;20937;-69
2021/12/25 00:08:03;;;;;;;20.57;16.33;;;;;;;;;;5056667;28;20861;-70
2021/12/25 00:10:30;;;;;;;22.60;18.10;;;;;;;;;;5055386;28;20477;-70
2021/12/25 00:12:56;;;;;;;23.27;18.07;;;;;;;;;;5056761;28;20457;-70
2021/12/25 00:15:22;;;;;;;23.43;17.70;;;;;;;;;;5056707;28;20412;-69
2021/12/25 00:17:49;;;;;;;25.00;19.77;;;;;;;;;;5056675;28;20399;-69
2021/12/25 00:20:15;;;;;;;19.87;17.80;;;;;;;;;;5056514;28;20787;-65
2021/12/25 00:22:41;;;;;;;23.33;20.00;;;;;;;;;;5056531;28;20407;-68
2021/12/25 00:25:07;;;;;;;26.17;21.07;;;;;;;;;;5056422;28;20493;-69
2021/12/25 00:28:00;;;;;;;30.30;20.50;;;;;;;;;;5056436;28;20399;-67
2021/12/25 00:33:01;;;;;;;25.60;21.13;;;;;;;;;;5055907;28;20411;-68
2021/12/25 00:35:28;;;;;;;28.03;21.87;;;;;;;;;;5056502;28;20437;-70
2021/12/25 00:37:54;;;;;;;27.30;21.23;;;;;;;;;;5056236;28;20935;-70
2021/12/25 00:40:20;;;;;;;26.37;20.80;;;;;;;;;;5056165;28;20395;-68
2021/12/25 00:42:46;;;;;;;25.40;20.47;;;;;;;;;;5056090;28;20400;-68
2021/12/25 00:45:12;;;;;;;30.80;20.80;;;;;;;;;;5055961;28;20832;-68
2021/12/25 00:47:38;;;;;;;25.37;20.07;;;;;;;;;;5056011;28;20391;-66
2021/12/25 00:50:05;;;;;;;23.73;19.90;;;;;;;;;;5055929;28;20891;-65
2021/12/25 00:52:31;;;;;;;21.80;18.73;;;;;;;;;;5055949;28;20388;-69
2021/12/25 00:54:57;;;;;;;22.10;18.47;;;;;;;;;;5055811;28;20404;-65
2021/12/25 00:57:23;;;;;;;24.17;18.60;;;;;;;;;;5055761;28;20398;-65
2021/12/25 00:59:49;;;;;;;22.57;19.23;;;;;;;;;;5055677;28;20395;-66
2021/12/25 01:02:15;;;;;;;22.87;17.90;;;;;;;;;;5055737;28;20788;-66
2021/12/25 01:04:41;;;;;;;23.50;19.33;;;;;;;;;;5055568;28;20454;-65
2021/12/25 01:07:07;;;;;;;23.43;18.73;;;;;;;;;;5055654;28;20404;-65
2021/12/25 01:09:33;;;;;;;25.50;17.70;;;;;;;;;;5055841;28;20754;-65
2021/12/25 01:11:59;;;;;;;20.00;18.00;;;;;;;;;;5055365;28;20512;-65
2021/12/25 01:14:34;;;;;;;21.60;18.73;;;;;;;;;;5055516;28;20399;-67
2021/12/25 01:27:50;;;;;;;14.77;12.87;;;;;;;;;;5055312;28;20407;-67
2021/12/25 01:37:36;;;;;;;12.90;11.60;;;;;;;;;;5055024;28;20399;-65
2021/12/25 01:41:13;;;;;;;11.30;10.20;;;;;;;;;;5053795;28;20458;-66
2021/12/25 01:48:27;;;;;;;9.27;8.47;;;;;;;;;;5055169;28;20444;-66
2021/12/25 01:50:53;;;;;;;12.70;10.90;;;;;;;;;;5054762;28;20962;-65
2021/12/25 01:53:20;;;;;;;8.30;7.60;;;;;;;;;;5054823;28;20481;-66
2021/12/25 01:55:46;;;;;;;8.23;7.43;;;;;;;;;;5054768;28;20765;-68
2021/12/25 01:58:12;;;;;;;5.43;5.13;;;;;;;;;;5053449;28;20976;-68
2021/12/25 02:00:47;;;;;;;6.30;5.23;;;;;;;;;;5054831;28;20411;-71
2021/12/25 02:03:13;;;;;;;5.37;5.07;;;;;;;;;;5054754;28;20395;-67
2021/12/25 02:05:40;;;;;;;4.23;4.10;;;;;;;;;;5054429;28;20470;-69
2021/12/25 02:08:06;;;;;;;3.80;3.70;;;;;;;;;;5054488;28;20399;-68
2021/12/25 02:10:32;;;;;;;3.37;3.27;;;;;;;;;;5054269;28;20462;-67
2021/12/25 02:12:58;;;;;;;3.87;3.57;;;;;;;;;;5054410;28;20405;-69
2021/12/25 02:15:27;;;;;;;3.80;3.57;;;;;;;;;;5054233;28;20406;-69
2021/12/25 02:20:43;;;;;;;3.70;3.47;;;;;;;;;;5054527;28;20415;-66
2021/12/25 02:23:11;;;;;;;3.80;3.60;;;;;;;;;;5054160;28;20798;-68
2021/12/25 02:25:37;;;;;;;5.37;5.13;;;;;;;;;;5054270;28;20528;-68
2021/12/25 02:28:05;;;;;;;3.87;3.60;;;;;;;;;;5054333;28;20395;-65
2021/12/25 02:30:31;;;;;;;3.20;3.10;;;;;;;;;;5054067;28;20399;-67
2021/12/25 02:32:58;;;;;;;3.40;3.10;;;;;;;;;;5054042;28;20400;-67
2021/12/25 02:35:24;;;;;;;3.83;3.37;;;;;;;;;;5053958;28;20901;-70
2021/12/25 02:37:50;;;;;;;3.10;3.10;;;;;;;;;;5054036;28;20433;-70
2021/12/25 02:40:16;;;;;;;3.00;3.00;;;;;;;;;;5053947;28;20407;-70
2021/12/25 02:42:43;;;;;;;2.93;2.83;;;;;;;;;;5053869;28;20430;-70
2021/12/25 02:45:15;;;;;;;3.70;3.50;;;;;;;;;;5053684;28;20462;-70
2021/12/25 02:47:43;;;;;;;3.70;3.33;;;;;;;;;;5053782;28;20814;-70
2021/12/25 02:50:09;;;;;;;3.13;3.13;;;;;;;;;;5053855;28;20387;-71
2021/12/25 02:52:35;;;;;;;3.20;3.10;;;;;;;;;;5053973;28;20416;-71
2021/12/25 02:55:01;;;;;;;3.90;3.77;;;;;;;;;;5053269;28;20405;-70
2021/12/25 02:57:27;;;;;;;5.97;5.63;;;;;;;;;;5053614;28;20465;-70
2021/12/25 02:59:53;;;;;;;3.50;3.40;;;;;;;;;;5053645;28;20403;-70
2021/12/25 03:02:19;;;;;;;3.13;3.03;;;;;;;;;;5053562;28;20399;-70
2021/12/25 03:04:46;;;;;;;4.23;4.13;;;;;;;;;;5053733;28;20465;-71
2021/12/25 03:07:12;;;;;;;3.30;3.20;;;;;;;;;;5053595;28;20870;-67
2021/12/25 03:09:39;;;;;;;3.87;3.57;;;;;;;;;;5053578;28;20403;-67
2021/12/25 03:12:07;;;;;;;3.80;3.60;;;;;;;;;;5053315;28;21038;-65
2021/12/25 03:14:39;;;;;;;3.60;3.33;;;;;;;;;;5053430;28;20396;-65
2021/12/25 03:17:05;;;;;;;3.63;3.53;;;;;;;;;;5053473;28;20441;-65
2021/12/25 03:19:33;;;;;;;3.03;2.93;;;;;;;;;;5053672;28;20403;-66
2021/12/25 03:22:04;;;;;;;3.37;3.23;;;;;;;;;;5053653;28;20401;-66
2021/12/25 03:24:30;;;;;;;4.13;3.87;;;;;;;;;;5053576;28;20845;-70
2021/12/25 03:26:57;;;;;;;4.23;4.07;;;;;;;;;;5053319;28;20897;-69
2021/12/25 03:29:23;;;;;;;6.00;5.43;;;;;;;;;;5053564;28;20763;-66
2021/12/25 03:31:50;;;;;;;3.77;3.67;;;;;;;;;;5053351;28;20490;-71
2021/12/25 03:34:16;;;;;;;5.77;5.40;;;;;;;;;;5053200;28;20395;-70
2021/12/25 03:36:42;;;;;;;4.87;4.57;;;;;;;;;;5053338;28;20403;-65
2021/12/25 03:39:08;;;;;;;6.20;4.83;;;;;;;;;;5053191;28;20395;-68
2021/12/25 03:41:34;;;;;;;5.53;5.03;;;;;;;;;;5053234;28;20395;-69
2021/12/25 03:44:01;;;;;;;3.97;3.73;;;;;;;;;;5053426;28;20398;-66
2021/12/25 03:46:31;;;;;;;3.93;3.73;;;;;;;;;;5053051;28;20984;-64
2021/12/25 03:49:06;;;;;;;3.73;3.57;;;;;;;;;;5053422;28;20482;-65
2021/12/25 03:59:53;;;;;;;5.60;5.30;;;;;;;;;;5052969;28;20483;-65
2021/12/25 04:02:25;;;;;;;4.10;3.97;;;;;;;;;;5053262;28;20395;-67
2021/12/25 04:04:51;;;;;;;5.33;4.90;;;;;;;;;;5053156;28;20475;-65
2021/12/25 04:09:43;;;;;;;4.83;4.60;;;;;;;;;;5057070;28;20433;-66
2021/12/25 04:12:13;;;;;;;5.33;5.07;;;;;;;;;;5056502;28;20496;-65
2021/12/25 04:14:40;;;;;;;5.60;4.83;;;;;;;;;;5056954;28;20484;-66
2021/12/25 04:17:06;;;;;;;5.47;5.17;;;;;;;;;;5056657;28;20395;-70
2021/12/25 04:19:32;;;;;;;4.57;4.23;;;;;;;;;;5056584;28;20407;-66
2021/12/25 04:22:09;;;;;;;5.20;4.90;;;;;;;;;;5056447;28;20406;-64
2021/12/25 04:24:39;;;;;;;4.50;4.30;;;;;;;;;;5056662;28;20407;-66
2021/12/25 04:27:09;;;;;;;5.67;4.53;;;;;;;;;;5056606;28;20411;-66
2021/12/25 04:29:41;;;;;;;5.23;4.70;;;;;;;;;;5056332;28;20897;-65
2021/12/25 04:47:53;;;;;;;5.10;4.70;;;;;;;;;;5056401;28;20406;-69
2021/12/25 05:04:42;;;;;;;5.23;4.93;;;;;;;;;;5055609;28;20418;-66
2021/12/25 05:07:10;;;;;;;5.90;5.57;;;;;;;;;;5056019;28;20435;-69
2021/12/25 05:09:36;;;;;;;5.67;5.37;;;;;;;;;;5055925;28;20396;-66
2021/12/25 05:12:02;;;;;;;5.80;5.40;;;;;;;;;;5055469;28;20466;-65
2021/12/25 05:14:28;;;;;;;5.27;4.90;;;;;;;;;;5055546;28;20439;-65
2021/12/25 05:16:54;;;;;;;6.10;5.57;;;;;;;;;;5055258;28;20415;-69
2021/12/25 05:19:20;;;;;;;6.13;5.73;;;;;;;;;;5055451;28;20448;-64
2021/12/25 05:21:46;;;;;;;5.13;4.83;;;;;;;;;;5055408;28;20414;-65
2021/12/25 05:24:12;;;;;;;5.83;5.43;;;;;;;;;;5055625;28;20407;-64
2021/12/25 05:26:38;;;;;;;5.80;5.50;;;;;;;;;;5055374;28;20474;-69
2021/12/25 05:29:05;;;;;;;6.83;6.20;;;;;;;;;;5055221;28;20402;-68
2021/12/25 05:31:32;;;;;;;5.87;5.47;;;;;;;;;;5055425;28;20403;-66
2021/12/25 05:33:59;;;;;;;5.70;5.40;;;;;;;;;;5055182;28;20407;-64
2021/12/25 05:36:27;;;;;;;6.30;5.87;;;;;;;;;;5055477;28;20400;-71
2021/12/25 05:38:58;;;;;;;5.73;5.43;;;;;;;;;;5055647;28;20415;-71
2021/12/25 05:41:28;;;;;;;5.43;5.23;;;;;;;;;;5055671;28;20382;-71
2021/12/25 05:43:54;;;;;;;5.10;4.80;;;;;;;;;;5055316;28;20403;-73
2021/12/25 05:46:20;;;;;;;5.83;5.53;;;;;;;;;;5055578;28;20478;-70
2021/12/25 05:48:48;;;;;;;6.57;6.07;;;;;;;;;;5055019;28;20395;-71
2021/12/25 05:51:15;;;;;;;6.20;5.73;;;;;;;;;;5055188;28;20437;-71
2021/12/25 05:53:41;;;;;;;6.63;6.13;;;;;;;;;;5054876;28;20399;-69
2021/12/25 05:56:07;;;;;;;6.17;5.77;;;;;;;;;;5054794;28;20874;-70
2021/12/25 05:58:33;;;;;;;8.13;6.10;;;;;;;;;;5054640;28;20945;-70
2021/12/25 06:00:59;;;;;;;9.73;5.80;;;;;;;;;;5054727;28;20542;-72
2021/12/25 06:03:25;;;;;;;5.73;5.43;;;;;;;;;;5054684;28;20490;-71
2021/12/25 06:05:51;;;;;;;10.50;6.47;;;;;;;;;;5054748;28;20560;-71
2021/12/25 06:08:17;;;;;;;6.33;5.83;;;;;;;;;;5054453;28;20856;-70
2021/12/25 06:10:44;;;;;;;6.87;6.37;;;;;;;;;;5054351;28;20804;-71
2021/12/25 06:13:15;;;;;;;8.47;7.67;;;;;;;;;;5054448;28;20889;-68
2021/12/25 06:15:42;;;;;;;7.87;7.30;;;;;;;;;;5054694;28;20406;-70
2021/12/25 06:18:09;;;;;;;8.23;7.53;;;;;;;;;;5054314;28;20410;-69
2021/12/25 06:20:35;;;;;;;12.80;6.90;;;;;;;;;;5054413;28;20399;-70
2021/12/25 06:23:01;;;;;;;6.23;5.80;;;;;;;;;;5054306;28;20438;-71
2021/12/25 06:25:27;;;;;;;6.77;6.33;;;;;;;;;;5054202;28;20512;-68
2021/12/25 06:27:53;;;;;;;7.83;7.20;;;;;;;;;;5054164;28;20406;-69
2021/12/25 06:30:19;;;;;;;8.07;7.37;;;;;;;;;;5053424;28;20434;-70
2021/12/25 06:32:45;;;;;;;8.40;7.13;;;;;;;;;;5054375;28;20411;-70
2021/12/25 06:35:12;;;;;;;6.73;6.33;;;;;;;;;;5054079;28;20407;-70
2021/12/25 06:37:40;;;;;;;8.67;7.77;;;;;;;;;;5054293;28;20415;-69
2021/12/25 06:40:09;;;;;;;10.83;7.50;;;;;;;;;;5053904;28;20403;-69
2021/12/25 06:42:35;;;;;;;8.90;7.10;;;;;;;;;;5054122;28;20755;-68
2021/12/25 06:45:01;;;;;;;8.60;7.87;;;;;;;;;;5053835;28;20455;-70
2021/12/25 06:47:27;;;;;;;8.90;8.20;;;;;;;;;;5053846;28;20760;-69
2021/12/25 06:49:53;;;;;;;8.37;6.90;;;;;;;;;;5054177;28;20391;-69
2021/12/25 06:52:19;;;;;;;8.47;7.57;;;;;;;;;;5053760;28;20940;-70
2021/12/25 06:54:45;;;;;;;7.70;6.90;;;;;;;;;;5053778;28;20426;-67
2021/12/25 06:57:11;;;;;;;8.20;7.00;;;;;;;;;;5053875;28;20407;-70
2021/12/25 06:59:37;;;;;;;9.80;7.17;;;;;;;;;;5053903;28;20414;-66
2021/12/25 07:02:03;;;;;;;9.20;7.40;;;;;;;;;;5053730;28;20490;-69
2021/12/25 07:04:30;;;;;;;7.63;6.80;;;;;;;;;;5053437;28;20413;-70
2021/12/25 07:06:56;;;;;;;10.23;7.47;;;;;;;;;;5053680;28;20403;-67
2021/12/25 07:09:22;;;;;;;10.30;7.20;;;;;;;;;;5052424;28;20422;-68
2021/12/25 07:11:48;;;;;;;10.23;7.30;;;;;;;;;;5053391;28;20519;-70
2021/12/25 07:14:14;;;;;;;10.57;8.10;;;;;;;;;;5053726;28;20407;-69
2021/12/25 07:16:41;;;;;;;8.70;7.60;;;;;;;;;;5053688;28;20477;-70
2021/12/25 07:19:07;;;;;;;12.53;7.83;;;;;;;;;;5053673;28;20880;-69
2021/12/25 07:21:33;;;;;;;10.13;7.50;;;;;;;;;;5053489;28;20410;-69
2021/12/25 07:23:59;;;;;;;7.27;6.60;;;;;;;;;;5053668;28;20751;-69
2021/12/25 07:26:27;;;;;;;8.13;7.43;;;;;;;;;;5053285;28;20461;-70
2021/12/25 07:28:53;;;;;;;8.37;7.43;;;;;;;;;;5053298;28;20755;-69
2021/12/25 07:31:21;;;;;;;8.87;7.83;;;;;;;;;;5053608;28;20505;-68
2021/12/25 07:33:47;;;;;;;8.93;8.03;;;;;;;;;;5053486;28;20538;-70
2021/12/25 07:36:13;;;;;;;9.80;7.70;;;;;;;;;;5053282;28;20417;-65
2021/12/25 07:38:40;;;;;;;9.93;9.03;;;;;;;;;;5053240;28;20399;-70
2021/12/25 07:41:06;;;;;;;10.00;9.00;;;;;;;;;;5055386;28;20407;-69
2021/12/25 07:43:32;;;;;;;9.10;8.20;;;;;;;;;;5057271;28;20429;-64
2021/12/25 07:45:58;;;;;;;8.77;7.90;;;;;;;;;;5057427;28;20561;-66
2021/12/25 07:48:26;;;;;;;9.67;8.70;;;;;;;;;;5057194;28;20438;-65
2021/12/25 07:50:52;;;;;;;9.90;8.53;;;;;;;;;;5057142;28;20410;-67
2021/12/25 07:53:19;;;;;;;9.43;8.40;;;;;;;;;;5057330;28;20407;-64
2021/12/25 07:55:47;;;;;;;11.97;9.67;;;;;;;;;;5057318;28;20430;-65
2021/12/25 07:58:14;;;;;;;9.77;8.87;;;;;;;;;;5056948;28;20391;-65
2021/12/25 08:00:40;;;;;;;9.10;8.30;;;;;;;;;;5057057;28;20407;-64
2021/12/25 08:03:06;;;;;;;14.27;8.70;;;;;;;;;;5055650;28;20442;-65
2021/12/25 08:05:33;;;;;;;15.23;9.87;;;;;;;;;;5056754;28;20553;-66
2021/12/25 08:07:59;;;;;;;9.47;8.43;;;;;;;;;;5057065;28;20500;-69
2021/12/25 08:10:25;;;;;;;10.53;9.17;;;;;;;;;;5056739;28;20480;-66
2021/12/25 08:12:55;;;;;;;12.27;9.83;;;;;;;;;;5056989;28;20411;-66
2021/12/25 08:15:23;;;;;;;15.20;9.30;;;;;;;;;;5056832;28;20824;-63
2021/12/25 08:17:49;;;;;;;11.63;9.67;;;;;;;;;;5056673;28;20407;-65
2021/12/25 08:20:16;;;;;;;13.10;10.00;;;;;;;;;;5056581;28;20395;-66
2021/12/25 08:22:42;;;;;;;11.23;9.27;;;;;;;;;;5056518;28;20413;-66
2021/12/25 08:25:09;;;;;;;12.33;9.50;;;;;;;;;;5056456;28;20520;-64
2021/12/25 08:27:35;;;;;;;17.33;10.27;;;;;;;;;;5056434;28;20399;-64
2021/12/25 08:30:02;;;;;;;11.80;9.53;;;;;;;;;;5056344;28;20896;-64
2021/12/25 08:32:28;;;;;;;11.50;10.30;;;;;;;;;;5056389;28;20418;-63
2021/12/25 08:34:54;;;;;;;10.70;9.60;;;;;;;;;;5056307;28;20878;-64
2021/12/25 08:37:23;;;;;;;9.90;8.90;;;;;;;;;;5056297;28;20403;-67
2021/12/25 08:39:50;;;;;;;10.57;9.23;;;;;;;;;;5056474;28;20759;-65
2021/12/25 08:42:16;;;;;;;15.77;9.63;;;;;;;;;;5056366;28;20407;-68
2021/12/25 08:47:20;;;;;;;11.23;8.97;;;;;;;;;;5056351;28;20418;-66
2021/12/25 08:49:46;;;;;;;14.63;9.13;;;;;;;;;;5056090;28;20763;-66
2021/12/25 08:52:13;;;;;;;11.20;9.63;;;;;;;;;;5055292;28;20502;-69
2021/12/25 08:54:40;;;;;;;12.00;9.63;;;;;;;;;;5055962;28;20870;-66
2021/12/25 08:57:07;;;;;;;9.83;8.83;;;;;;;;;;5056204;28;20411;-70
2021/12/25 08:59:34;;;;;;;12.47;10.10;;;;;;;;;;5055857;28;20881;-68
2021/12/25 09:02:03;;;;;;;14.33;12.33;;;;;;;;;;5056103;28;20780;-69
2021/12/25 09:04:29;;;;;;;15.17;12.57;;;;;;;;;;5055671;28;20882;-66
2021/12/25 09:06:55;;;;;;;12.70;9.87;;;;;;;;;;5055739;28;20411;-68
2021/12/25 09:09:21;;;;;;;12.90;10.43;;;;;;;;;;5055685;28;20407;-66
2021/12/25 09:11:48;;;;;;;17.33;10.23;;;;;;;;;;5055494;28;20612;-69
2021/12/25 09:14:14;;;;;;;14.63;10.13;;;;;;;;;;5055595;28;20494;-68
2021/12/25 09:16:40;;;;;;;13.33;11.37;;;;;;;;;;5054353;28;20509;-68
2021/12/25 09:19:06;;;;;;;13.30;9.53;;;;;;;;;;5055841;28;20860;-68
2021/12/25 09:21:32;;;;;;;12.00;9.50;;;;;;;;;;5055760;28;20505;-70
2021/12/25 09:23:58;;;;;;;12.03;8.60;;;;;;;;;;5055365;28;20403;-68
2021/12/25 09:26:24;;;;;;;9.13;8.33;;;;;;;;;;5055394;28;20458;-66
2021/12/25 09:28:50;;;;;;;10.70;9.27;;;;;;;;;;5054022;28;20423;-68
2021/12/25 09:31:17;;;;;;;9.20;8.30;;;;;;;;;;5055333;28;20916;-69
2021/12/25 09:33:43;;;;;;;12.47;9.40;;;;;;;;;;5055217;28;20407;-69
2021/12/25 09:36:09;;;;;;;9.97;8.90;;;;;;;;;;5055467;28;20428;-68
2021/12/25 09:38:35;;;;;;;11.17;10.10;;;;;;;;;;5054157;28;20410;-67
2021/12/25 09:41:02;;;;;;;10.80;9.67;;;;;;;;;;5055379;28;20512;-68
2021/12/25 09:43:28;;;;;;;12.93;9.03;;;;;;;;;;5055033;28;20399;-67
2021/12/25 09:45:55;;;;;;;10.57;9.50;;;;;;;;;;5054962;28;20960;-67
2021/12/25 09:48:21;;;;;;;11.23;10.07;;;;;;;;;;5054942;28;20399;-65
2021/12/25 09:50:47;;;;;;;11.47;10.37;;;;;;;;;;5053599;28;20913;-68
2021/12/25 09:53:14;;;;;;;12.80;9.87;;;;;;;;;;5053819;28;20514;-67
2021/12/25 09:55:40;;;;;;;14.37;10.97;;;;;;;;;;5054774;28;20428;-70
2021/12/25 09:58:07;;;;;;;15.33;11.33;;;;;;;;;;5054944;28;20427;-67
2021/12/25 10:00:34;;;;;;;15.63;11.60;;;;;;;;;;5054761;28;20402;-68
2021/12/25 10:03:00;;;;;;;12.90;11.60;;;;;;;;;;5054485;28;20435;-66
2021/12/25 10:05:31;;;;;;;13.80;11.13;;;;;;;;;;5053452;28;20489;-65
2021/12/25 10:08:18;;;;;;;17.43;11.70;;;;;;;;;;5054349;28;21038;-64
2021/12/25 10:10:45;;;;;;;16.40;11.77;;;;;;;;;;5054201;28;20455;-64
2021/12/25 10:13:39;;;;;;;14.40;10.73;;;;;;;;;;5054589;28;20411;-65
2021/12/25 10:16:20;;;;;;;17.03;13.03;;;;;;;;;;5053309;28;20760;-63
2021/12/25 10:18:46;;;;;;;24.40;14.23;;;;;;;;;;5054468;28;20418;-63
2021/12/25 10:21:18;;;;;;;25.70;15.20;;;;;;;;;;5054185;28;20399;-63
2021/12/25 10:23:44;;;;;;;14.73;12.20;;;;;;;;;;5054013;28;20391;-63
2021/12/25 10:26:10;;;;;;;17.00;12.67;;;;;;;;;;5053959;28;21026;-63
2021/12/25 10:28:37;;;;;;;12.97;10.93;;;;;;;;;;5054008;28;20395;-63
2021/12/25 10:31:08;;;;;;;10.83;9.73;;;;;;;;;;5054017;28;20429;-65
2021/12/25 10:33:37;;;;;;;10.60;9.60;;;;;;;;;;5054229;28;20485;-64
2021/12/25 10:36:27;;;;;;;12.90;9.90;;;;;;;;;;5053915;28;20465;-65
2021/12/25 10:39:12;;;;;;;10.87;9.90;;;;;;;;;;5051058;28;20541;-67
2021/12/25 10:41:51;;;;;;;15.40;11.00;;;;;;;;;;5053945;28;20418;-68
2021/12/25 10:44:19;;;;;;;14.07;11.90;;;;;;;;;;5054034;28;20402;-68
2021/12/25 10:46:48;;;;;;;11.43;10.30;;;;;;;;;;5053721;28;20462;-65
2021/12/25 10:49:15;;;;;;;10.13;9.13;;;;;;;;;;5053713;28;20441;-64
2021/12/25 10:51:41;;;;;;;11.57;10.47;;;;;;;;;;5053963;28;20502;-64
2021/12/25 10:54:11;;;;;;;13.60;10.50;;;;;;;;;;5053893;28;20431;-63
2021/12/25 10:56:38;;;;;;;11.27;10.17;;;;;;;;;;5053924;28;20420;-64
2021/12/25 10:59:08;;;;;;;10.70;9.53;;;;;;;;;;5053656;28;20742;-64
2021/12/25 11:01:39;;;;;;;15.40;11.77;;;;;;;;;;5052247;28;20462;-67
2021/12/25 11:04:06;;;;;;;18.50;11.90;;;;;;;;;;5053696;28;20414;-69
2021/12/25 11:06:40;;;;;;;11.63;10.50;;;;;;;;;;5053754;28;20484;-64
2021/12/25 11:09:08;;;;;;;15.97;11.10;;;;;;;;;;5053514;28;20494;-68
2021/12/25 11:11:34;;;;;;;12.47;11.37;;;;;;;;;;5052081;28;20540;-66
2021/12/25 11:14:02;;;;;;;13.63;11.40;;;;;;;;;;5053506;28;20407;-66
2021/12/25 11:16:35;;;;;;;13.93;11.20;;;;;;;;;;5053410;28;20762;-65
2021/12/25 11:19:08;;;;;;;13.73;11.00;;;;;;;;;;5053395;28;20383;-69
2021/12/25 11:21:44;;;;;;;15.00;11.03;;;;;;;;;;5053423;28;20396;-65
2021/12/25 11:24:10;;;;;;;14.47;11.10;;;;;;;;;;5053345;28;20814;-65
2021/12/25 11:26:36;;;;;;;11.47;10.30;;;;;;;;;;5053151;28;20466;-69
2021/12/25 11:29:03;;;;;;;13.90;11.20;;;;;;;;;;5053439;28;20402;-69
2021/12/25 11:31:30;;;;;;;17.13;13.80;;;;;;;;;;5053308;28;20893;-68
2021/12/25 11:33:57;;;;;;;11.53;10.43;;;;;;;;;;5053215;28;20495;-68
2021/12/25 11:36:23;;;;;;;14.03;10.20;;;;;;;;;;5053458;28;20492;-69
2021/12/25 11:38:50;;;;;;;12.50;10.53;;;;;;;;;;5053279;28;20816;-67
2021/12/25 11:41:16;;;;;;;12.50;10.80;;;;;;;;;;5053322;28;20403;-68
2021/12/25 11:43:44;;;;;;;13.13;11.20;;;;;;;;;;5053422;28;20411;-66
2021/12/25 11:46:11;;;;;;;11.87;10.67;;;;;;;;;;5053159;28;20498;-67
2021/12/25 11:48:39;;;;;;;10.97;9.97;;;;;;;;;;5053428;28;20498;-65
2021/12/25 11:51:06;;;;;;;10.77;9.60;;;;;;;;;;5053197;28;20438;-65
2021/12/25 11:53:45;;;;;;;12.80;10.47;;;;;;;;;;5053159;28;20396;-68
2021/12/25 11:58:48;;;;;;;10.80;9.90;;;;;;;;;;5053392;28;20874;-68
2021/12/25 12:01:16;;;;;;;12.13;10.83;;;;;;;;;;5053334;28;20419;-68
2021/12/25 12:03:46;;;;;;;11.80;9.50;;;;;;;;;;5052953;28;20399;-64
2021/12/25 12:06:13;;;;;;;12.40;9.70;;;;;;;;;;5053172;28;20478;-67
2021/12/25 12:08:54;;;;;;;13.60;10.00;;;;;;;;;;5053216;28;20399;-64
2021/12/25 12:11:20;;;;;;;11.70;10.03;;;;;;;;;;5052810;28;20881;-69
2021/12/25 12:13:46;;;;;;;11.67;9.10;;;;;;;;;;5052951;28;20387;-66
2021/12/25 12:16:12;;;;;;;21.77;16.73;;;;;;;;;;5052999;28;20410;-65
2021/12/25 12:18:39;;;;;;;16.40;10.40;;;;;;;;;;5052834;28;20870;-65
2021/12/25 12:21:17;;;;;;;13.47;10.50;;;;;;;;;;5052812;28;20418;-67
2021/12/25 12:26:13;;;;;;;11.63;10.50;;;;;;;;;;5053011;28;20826;-63
2021/12/25 12:28:44;;;;;;;12.20;11.00;;;;;;;;;;5055403;28;20403;-64
2021/12/25 12:31:30;;;;;;;16.20;12.53;;;;;;;;;;5055168;28;20561;-65
2021/12/25 12:33:56;;;;;;;12.27;10.57;;;;;;;;;;5056108;28;20402;-64
2021/12/25 12:36:24;;;;;;;12.10;10.77;;;;;;;;;;5056483;28;20498;-64
2021/12/25 12:38:54;;;;;;;11.20;10.10;;;;;;;;;;5056254;28;20398;-63
2021/12/25 12:41:21;;;;;;;14.10;12.13;;;;;;;;;;5056143;28;20399;-68
2021/12/25 12:43:51;;;;;;;13.77;11.23;;;;;;;;;;5056158;28;20411;-70
2021/12/25 12:46:19;;;;;;;11.27;10.13;;;;;;;;;;5056040;28;20469;-70
2021/12/25 12:49:03;;;;;;;10.87;9.77;;;;;;;;;;5056134;28;20391;-69
2021/12/25 12:51:29;;;;;;;11.90;10.00;;;;;;;;;;5056156;28;20427;-66
2021/12/25 12:53:55;;;;;;;11.87;10.63;;;;;;;;;;5056000;28;20874;-69
2021/12/25 12:56:22;;;;;;;11.50;10.07;;;;;;;;;;5055972;28;20457;-70
2021/12/25 12:58:52;;;;;;;12.03;10.83;;;;;;;;;;5055875;28;20406;-66
2021/12/25 13:01:18;;;;;;;11.07;9.90;;;;;;;;;;5055705;28;20453;-69
2021/12/25 13:03:45;;;;;;;11.97;10.27;;;;;;;;;;5055952;28;20402;-67
2021/12/25 13:06:14;;;;;;;14.27;11.27;;;;;;;;;;5055737;28;20979;-68
2021/12/25 13:08:42;;;;;;;10.90;9.43;;;;;;;;;;5055868;28;20395;-70
2021/12/25 13:11:26;;;;;;;10.30;9.30;;;;;;;;;;5054624;28;20612;-65
2021/12/25 13:13:54;;;;;;;11.20;10.10;;;;;;;;;;5055792;28;20395;-63
2021/12/25 13:16:23;;;;;;;11.50;10.30;;;;;;;;;;5055957;28;20399;-66
2021/12/25 13:18:50;;;;;;;10.90;9.97;;;;;;;;;;5055504;28;20395;-63
2021/12/25 13:21:17;;;;;;;16.27;9.93;;;;;;;;;;5055555;28;20407;-63
2021/12/25 13:23:49;;;;;;;10.13;9.23;;;;;;;;;;5055429;28;20395;-64
2021/12/25 13:26:16;;;;;;;9.80;8.90;;;;;;;;;;5055280;28;20557;-64
2021/12/25 13:28:44;;;;;;;12.20;9.20;;;;;;;;;;5055432;28;20407;-63
2021/12/25 13:31:12;;;;;;;14.83;9.40;;;;;;;;;;5055319;28;20388;-67
2021/12/25 13:33:52;;;;;;;10.30;9.40;;;;;;;;;;5055348;28;20743;-66
2021/12/25 13:36:22;;;;;;;9.73;8.93;;;;;;;;;;5055272;28;20391;-66
2021/12/25 13:38:50;;;;;;;11.80;9.27;;;;;;;;;;5053792;28;20430;-65
2021/12/25 13:41:28;;;;;;;11.00;8.47;;;;;;;;;;5055101;28;20438;-64
2021/12/25 13:44:12;;;;;;;11.60;8.77;;;;;;;;;;5055048;28;20411;-64
2021/12/25 13:46:38;;;;;;;9.80;8.80;;;;;;;;;;5055059;28;20900;-64
2021/12/25 13:49:04;;;;;;;9.83;8.30;;;;;;;;;;5054963;28;20434;-66
2021/12/25 13:51:30;;;;;;;13.63;8.23;;;;;;;;;;5054895;28;20539;-67
2021/12/25 13:53:56;;;;;;;9.37;8.17;;;;;;;;;;5054856;28;20401;-64
2021/12/25 13:56:22;;;;;;;9.47;8.50;;;;;;;;;;5054711;28;20407;-63
2021/12/25 13:58:48;;;;;;;12.27;10.73;;;;;;;;;;5054817;28;20495;-65
2021/12/25 14:01:16;;;;;;;10.77;9.77;;;;;;;;;;5054484;28;20894;-64
2021/12/25 14:03:43;;;;;;;11.63;9.70;;;;;;;;;;5054488;28;20411;-63
2021/12/25 14:06:09;;;;;;;15.30;12.83;;;;;;;;;;5054468;28;20477;-63
2021/12/25 14:08:35;;;;;;;15.67;12.40;;;;;;;;;;5054505;28;20981;-65
2021/12/25 14:11:02;;;;;;;15.87;14.23;;;;;;;;;;5054361;28;20502;-65
2021/12/25 14:13:29;;;;;;;13.23;11.90;;;;;;;;;;5054390;28;20497;-64
2021/12/25 14:15:56;;;;;;;17.30;10.73;;;;;;;;;;5054374;28;20886;-64
2021/12/25 14:18:23;;;;;;;10.73;9.73;;;;;;;;;;5054246;28;20477;-64
2021/12/25 14:20:49;;;;;;;11.20;9.40;;;;;;;;;;5054410;28;20435;-69
2021/12/25 14:23:16;;;;;;;10.30;9.10;;;;;;;;;;5054261;28;20418;-68
2021/12/25 14:25:46;;;;;;;10.23;9.33;;;;;;;;;;5054162;28;20457;-69
2021/12/25 14:28:17;;;;;;;12.30;9.20;;;;;;;;;;5054408;28;20434;-71
2021/12/25 14:30:57;;;;;;;9.77;8.77;;;;;;;;;;5054354;28;20400;-70
2021/12/25 14:33:23;;;;;;;10.03;9.03;;;;;;;;;;5054335;28;20406;-69
2021/12/25 14:35:49;;;;;;;10.30;9.20;;;;;;;;;;5054145;28;20493;-64
2021/12/25 14:38:15;;;;;;;10.30;9.27;;;;;;;;;;5053990;28;20882;-65
2021/12/25 14:40:49;;;;;;;10.07;9.00;;;;;;;;;;5054218;28;20731;-64
2021/12/25 14:43:16;;;;;;;12.00;8.73;;;;;;;;;;5053906;28;20421;-64
2021/12/25 14:45:42;;;;;;;9.30;8.57;;;;;;;;;;5053708;28;20803;-66
2021/12/25 14:48:09;;;;;;;13.73;9.50;;;;;;;;;;5053844;28;20483;-64
2021/12/25 14:50:37;;;;;;;11.73;10.40;;;;;;;;;;5053230;28;20437;-65
2021/12/25 14:53:05;;;;;;;11.70;10.50;;;;;;;;;;5053743;28;20391;-64
2021/12/25 14:55:36;;;;;;;12.03;9.53;;;;;;;;;;5053773;28;20435;-64
2021/12/25 14:58:28;;;;;;;11.97;10.70;;;;;;;;;;5053995;28;20403;-63
2021/12/25 15:01:11;;;;;;;17.10;10.93;;;;;;;;;;5052542;28;20426;-64
2021/12/25 15:03:39;;;;;;;11.93;10.00;;;;;;;;;;5053638;28;20406;-70
2021/12/25 15:06:05;;;;;;;11.70;10.50;;;;;;;;;;5053603;28;20494;-64
2021/12/25 15:08:35;;;;;;;12.60;11.13;;;;;;;;;;5053564;28;20406;-69
2021/12/25 15:11:19;;;;;;;40.23;32.27;;;;;;;;;;5053590;28;20577;-69
2021/12/25 15:13:57;;;;;;;21.00;16.73;;;;;;;;;;5053477;28;20889;-68
2021/12/25 15:16:33;;;;;;;11.40;10.50;;;;;;;;;;5053696;28;20411;-64
2021/12/25 15:18:59;;;;;;;10.97;9.87;;;;;;;;;;5053525;28;20387;-66
2021/12/25 15:21:26;;;;;;;10.00;9.10;;;;;;;;;;5053570;28;20900;-68
2021/12/25 15:24:08;;;;;;;14.80;10.50;;;;;;;;;;5053454;28;20508;-68
2021/12/25 15:26:54;;;;;;;18.83;10.30;;;;;;;;;;5053259;28;20466;-68
2021/12/25 15:29:20;;;;;;;12.80;11.43;;;;;;;;;;5053307;28;20773;-67
2021/12/25 15:31:47;;;;;;;13.40;11.93;;;;;;;;;;5053407;28;20407;-64
2021/12/25 15:34:19;;;;;;;12.40;11.10;;;;;;;;;;5053371;28;20387;-64
2021/12/25 15:36:47;;;;;;;14.50;11.47;;;;;;;;;;5053205;28;20398;-64
2021/12/25 15:39:14;;;;;;;12.27;10.23;;;;;;;;;;5053787;28;20392;-66
2021/12/25 15:41:41;;;;;;;15.00;11.50;;;;;;;;;;5053434;28;20770;-65
2021/12/25 15:44:07;;;;;;;12.00;10.70;;;;;;;;;;5053471;28;20453;-64
2021/12/25 15:46:33;;;;;;;19.27;10.97;;;;;;;;;;5053464;28;20840;-64
2021/12/25 15:48:59;;;;;;;12.93;10.77;;;;;;;;;;5053437;28;20774;-66
2021/12/25 15:51:28;;;;;;;12.07;10.93;;;;;;;;;;5053168;28;20394;-64
2021/12/25 15:53:53;;;;;;;13.37;11.97;;;;;;;;;;5053254;28;20727;-64